Katherine — WDD5676 — position and weather

sailwx.info

Track history (hours):
 
Tides and Currents Weather Stations Pressure Air Temp Water Temp Dewpoint Dewpoint Depression Visibility Wind Speed Wind Dir Waves Ship Positions

Katherine

Owner: Weeks Marine, Inc., Cranford, NJ. More information available from US FCC via Universal Licensing System and Coast Guard Vessel Documentation Center.

Last reported at 2017-Dec-10 03:10 UTC. Time now 2017-Dec-12 18:00 UTC.
Position N 34°39' W 076°23'.

Length 31 m; draft 4.7 m.

Type: Towing. MMSI: 367161940.

Date/timePositionNaut miles runAvg speedWind from/ knotsBaromVisibWave heightAir tempDewpointWater temp
2017-Dec-10 03:10N 34°39' W 076°23'1 4.7
2017-Dec-10 02:55N 34°38' W 076°24'2 4.6
2017-Dec-10 02:25N 34°36' W 076°23'13 2.2
2017-Dec-09 20:20N 34°31' W 076°38'2 6.3
2017-Dec-09 20:00N 34°32' W 076°40'3 6.4
2017-Dec-09 19:30N 34°34' W 076°44'3 6.4
2017-Dec-09 18:59N 34°36' W 076°46'3 6.1
2017-Dec-09 18:30N 34°38' W 076°49'2 3.0
2017-Dec-09 18:00N 34°39' W 076°51'2 4.0
2017-Dec-09 17:30N 34°38' W 076°48'2 4.5
2017-Dec-09 17:00N 34°40' W 076°46'2 4.2
2017-Dec-09 16:30N 34°40' W 076°49'2 4.8
2017-Dec-09 16:00N 34°40' W 076°52'2 4.5
2017-Dec-09 15:30N 34°40' W 076°54'2 4.5
2017-Dec-09 14:59N 34°39' W 076°57'2 1.4
2017-Dec-09 13:09N 34°37' W 076°57'1 4.6
2017-Dec-09 12:59N 34°37' W 076°56'2 4.7
2017-Dec-09 12:30N 34°38' W 076°53'2 4.8
2017-Dec-09 12:00N 34°38' W 076°51'2 3.3
2017-Dec-09 11:30N 34°40' W 076°52'2 4.8
2017-Dec-09 11:00N 34°39' W 076°55'2 4.7
2017-Dec-09 10:30N 34°39' W 076°58'3 2.8
2017-Dec-09 09:29N 34°36' W 076°59'2 5.1
2017-Dec-09 09:00N 34°37' W 076°57'3 5.1
2017-Dec-09 08:30N 34°38' W 076°54'2 4.8
2017-Dec-09 08:00N 34°39' W 076°51'2 4.0
2017-Dec-09 07:30N 34°39' W 076°53'2 4.6
2017-Dec-09 07:00N 34°39' W 076°56'4 3.1
2017-Dec-09 05:41N 34°36' W 076°59'3 4.8
2017-Dec-09 05:08N 34°37' W 076°56'1 4.8
2017-Dec-09 05:00N 34°37' W 076°55'2 4.8
2017-Dec-09 04:30N 34°38' W 076°53'3 4.8
2017-Dec-09 03:59N 34°39' W 076°50'3 3.2
2017-Dec-09 02:54N 34°38' W 076°54'5 3.0
2017-Dec-09 01:25N 34°34' W 076°55'4 4.6
2017-Dec-09 00:26N 34°37' W 076°52'2 5.1
2017-Dec-09 00:00N 34°39' W 076°50'2 3.1
2017-Dec-08 23:30N 34°39' W 076°52'4 3.7
2017-Dec-08 22:32N 34°37' W 076°56'0 3.6
2017-Dec-08 22:29N 34°37' W 076°56'1 0.6
2017-Dec-08 20:58N 34°37' W 076°57'2 4.9
2017-Dec-08 20:30N 34°38' W 076°54'2 4.9
2017-Dec-08 20:00N 34°40' W 076°52'2 3.3
2017-Dec-08 19:30N 34°39' W 076°50'2 3.8
2017-Dec-08 19:00N 34°38' W 076°51'2 4.0
2017-Dec-08 18:30N 34°38' W 076°54'2 1.0
2017-Dec-08 16:30N 34°37' W 076°56'2 4.9
2017-Dec-08 16:00N 34°38' W 076°53'2 5.0
2017-Dec-08 15:30N 34°38' W 076°50'3 5.0
2017-Dec-08 15:00N 34°39' W 076°47'2 3.6
2017-Dec-08 14:30N 34°38' W 076°45'2 4.1
2017-Dec-08 14:00N 34°37' W 076°47'2 4.5
2017-Dec-08 13:30N 34°36' W 076°50'2 4.4
2017-Dec-08 13:00N 34°36' W 076°53'  
2017-Dec-04 05:30N 27°03' W 079°58'4 7.3
2017-Dec-04 05:00N 26°59' W 079°58'4 7.2
2017-Dec-04 04:30N 26°55' W 079°57'4 7.2
2017-Dec-04 04:00N 26°52' W 079°57'4 7.0
2017-Dec-04 03:30N 26°48' W 079°57'4 7.1
2017-Dec-04 03:00N 26°45' W 079°57'4 7.1
2017-Dec-04 02:30N 26°41' W 079°57'4 7.2
2017-Dec-04 02:00N 26°38' W 079°57'4 7.5
2017-Dec-04 01:29N 26°34' W 079°57'17 7.2
2017-Dec-03 23:12N 26°17' W 080°00'2 7.2
2017-Dec-03 22:56N 26°15' W 080°01'3 7.1
2017-Dec-03 22:29N 26°12' W 080°01'4 7.2
2017-Dec-03 22:00N 26°09' W 080°02'4 7.3
2017-Dec-03 21:30N 26°05' W 080°02'4 7.3
2017-Dec-03 21:00N 26°02' W 080°02'4 7.3
2017-Dec-03 20:30N 25°58' W 080°03'4 7.5
2017-Dec-03 20:00N 25°54' W 080°03'4 7.4
2017-Dec-03 19:30N 25°51' W 080°03'4 7.5
2017-Dec-03 19:00N 25°47' W 080°03'4 7.6
2017-Dec-03 18:30N 25°43' W 080°03'4 7.5
2017-Dec-03 18:00N 25°39' W 080°03'4 7.3
2017-Dec-03 17:30N 25°36' W 080°03'4 7.2
2017-Dec-03 16:59N 25°32' W 080°04'  
Track history (hours):
 
Tides and Currents Weather Stations Pressure Air Temp Water Temp Dewpoint Dewpoint Depression Visibility Wind Speed Wind Dir Waves Ship Positions

Katherine

Owner: Weeks Marine, Inc., Cranford, NJ. More information available from US FCC via Universal Licensing System and Coast Guard Vessel Documentation Center.

Last reported at 2017-Dec-10 03:10 UTC. Time now 2017-Dec-12 18:00 UTC.
Position N 34°39' W 076°23'.

Length 31 m; draft 4.7 m.

Type: Towing. MMSI: 367161940.

Date/timePositionNaut miles runAvg speedWind from/ knotsBaromVisibWave heightAir tempDewpointWater temp
2017-Dec-10 03:10N 34°39' W 076°23'1 4.7
2017-Dec-10 02:55N 34°38' W 076°24'2 4.6
2017-Dec-10 02:25N 34°36' W 076°23'13 2.2
2017-Dec-09 20:20N 34°31' W 076°38'2 6.3
2017-Dec-09 20:00N 34°32' W 076°40'3 6.4
2017-Dec-09 19:30N 34°34' W 076°44'3 6.4
2017-Dec-09 18:59N 34°36' W 076°46'3 6.1
2017-Dec-09 18:30N 34°38' W 076°49'2 3.0
2017-Dec-09 18:00N 34°39' W 076°51'2 4.0
2017-Dec-09 17:30N 34°38' W 076°48'2 4.5
2017-Dec-09 17:00N 34°40' W 076°46'2 4.2
2017-Dec-09 16:30N 34°40' W 076°49'2 4.8
2017-Dec-09 16:00N 34°40' W 076°52'2 4.5
2017-Dec-09 15:30N 34°40' W 076°54'2 4.5
2017-Dec-09 14:59N 34°39' W 076°57'2 1.4
2017-Dec-09 13:09N 34°37' W 076°57'1 4.6
2017-Dec-09 12:59N 34°37' W 076°56'2 4.7
2017-Dec-09 12:30N 34°38' W 076°53'2 4.8
2017-Dec-09 12:00N 34°38' W 076°51'2 3.3
2017-Dec-09 11:30N 34°40' W 076°52'2 4.8
2017-Dec-09 11:00N 34°39' W 076°55'2 4.7
2017-Dec-09 10:30N 34°39' W 076°58'3 2.8
2017-Dec-09 09:29N 34°36' W 076°59'2 5.1
2017-Dec-09 09:00N 34°37' W 076°57'3 5.1
2017-Dec-09 08:30N 34°38' W 076°54'2 4.8
2017-Dec-09 08:00N 34°39' W 076°51'2 4.0
2017-Dec-09 07:30N 34°39' W 076°53'2 4.6
2017-Dec-09 07:00N 34°39' W 076°56'4 3.1
2017-Dec-09 05:41N 34°36' W 076°59'3 4.8
2017-Dec-09 05:08N 34°37' W 076°56'1 4.8
2017-Dec-09 05:00N 34°37' W 076°55'2 4.8
2017-Dec-09 04:30N 34°38' W 076°53'3 4.8
2017-Dec-09 03:59N 34°39' W 076°50'3 3.2
2017-Dec-09 02:54N 34°38' W 076°54'5 3.0
2017-Dec-09 01:25N 34°34' W 076°55'4 4.6
2017-Dec-09 00:26N 34°37' W 076°52'2 5.1
2017-Dec-09 00:00N 34°39' W 076°50'2 3.1
2017-Dec-08 23:30N 34°39' W 076°52'4 3.7
2017-Dec-08 22:32N 34°37' W 076°56'0 3.6
2017-Dec-08 22:29N 34°37' W 076°56'1 0.6
2017-Dec-08 20:58N 34°37' W 076°57'2 4.9
2017-Dec-08 20:30N 34°38' W 076°54'2 4.9
2017-Dec-08 20:00N 34°40' W 076°52'2 3.3
2017-Dec-08 19:30N 34°39' W 076°50'2 3.8
2017-Dec-08 19:00N 34°38' W 076°51'2 4.0
2017-Dec-08 18:30N 34°38' W 076°54'2 1.0
2017-Dec-08 16:30N 34°37' W 076°56'2 4.9
2017-Dec-08 16:00N 34°38' W 076°53'2 5.0
2017-Dec-08 15:30N 34°38' W 076°50'3 5.0
2017-Dec-08 15:00N 34°39' W 076°47'2 3.6
2017-Dec-08 14:30N 34°38' W 076°45'2 4.1
2017-Dec-08 14:00N 34°37' W 076°47'2 4.5
2017-Dec-08 13:30N 34°36' W 076°50'2 4.4
2017-Dec-08 13:00N 34°36' W 076°53'  
2017-Dec-04 05:30N 27°03' W 079°58'4 7.3
2017-Dec-04 05:00N 26°59' W 079°58'4 7.2
2017-Dec-04 04:30N 26°55' W 079°57'4 7.2
2017-Dec-04 04:00N 26°52' W 079°57'4 7.0
2017-Dec-04 03:30N 26°48' W 079°57'4 7.1
2017-Dec-04 03:00N 26°45' W 079°57'4 7.1
2017-Dec-04 02:30N 26°41' W 079°57'4 7.2
2017-Dec-04 02:00N 26°38' W 079°57'4 7.5
2017-Dec-04 01:29N 26°34' W 079°57'17 7.2
2017-Dec-03 23:12N 26°17' W 080°00'2 7.2
2017-Dec-03 22:56N 26°15' W 080°01'3 7.1
2017-Dec-03 22:29N 26°12' W 080°01'4 7.2
2017-Dec-03 22:00N 26°09' W 080°02'4 7.3
2017-Dec-03 21:30N 26°05' W 080°02'4 7.3
2017-Dec-03 21:00N 26°02' W 080°02'4 7.3
2017-Dec-03 20:30N 25°58' W 080°03'4 7.5
2017-Dec-03 20:00N 25°54' W 080°03'4 7.4
2017-Dec-03 19:30N 25°51' W 080°03'4 7.5
2017-Dec-03 19:00N 25°47' W 080°03'4 7.6
2017-Dec-03 18:30N 25°43' W 080°03'4 7.5
2017-Dec-03 18:00N 25°39' W 080°03'4 7.3
2017-Dec-03 17:30N 25°36' W 080°03'4 7.2
2017-Dec-03 16:59N 25°32' W 080°04'  

Dump ship's entire track history